KJXN/JXN METAR and TAF weather

Enter ICAO airport designator
Station Type Date Time Source
KJXN METAR 2020/12/06 00:56 UTC NOAA

KJXN 060056Z 00000KT 10SM CLR M04/M07 A3012 RMK AO2 SLP210 T10391072


Station Type Date Time Source
KJXN Decoded METAR 2020/12/06 00:56 UTC NOAA

JACKSON COUNTY-REYNOLDS, MI, United States (KJXN) 42-16N 084-28W
Dec 05, 2020 - 07:56 PM EST / 2020.12.06 0056 UTC
Wind: Calm:0
Visibility: 10 mile(s):0
Sky conditions: clear
Temperature: 25.0 F (-3.9 C)
Dew Point: 19.0 F (-7.2 C)
Relative Humidity: 77%
Pressure (altimeter): 30.12 in. Hg (1019 hPa)
ob: KJXN 060056Z 00000KT 10SM CLR M04/M07 A3012 RMK AO2 SLP210 T10391072
cycle: 1

Station Type Date Time Source
KJXN TAF 2020/12/05 18:27 UTC NOAA

TAF KJXN 051725Z 0518/0618 32006KT P6SM BKN025
FM052100 35003KT P6SM BKN035
FM060300 07002KT P6SM OVC030

Example: see airport list